Time;durP1;ratioP1;P1;durP2;ratioP2;P2;SDS_P1;SDS_P2;PMS_P1;PMS_P2;Temp;Humidity;BMP_temperature;BMP_pressure;BME280_temperature;BME280_humidity;BME280_pressure;Samples;Min_cycle;Max_cycle;Signal;HPM_P1;HPM_P2
2022/06/10 00:01:08;;;;;;;5.00;4.50;;;11.90;99.90;;;;;;5110064;28;20252;-51
2022/06/10 00:03:36;;;;;;;6.07;4.37;;;11.90;99.90;;;;;;5109335;28;20215;-51
2022/06/10 00:06:07;;;;;;;5.87;5.27;;;11.90;99.90;;;;;;5110571;28;20288;-51
2022/06/10 00:08:37;;;;;;;4.93;4.53;;;11.90;99.90;;;;;;5109600;28;20215;-51
2022/06/10 00:11:08;;;;;;;4.73;4.33;;;11.90;99.90;;;;;;5110430;28;20243;-50
2022/06/10 00:13:38;;;;;;;7.27;4.60;;;11.90;99.90;;;;;;5109494;28;20622;-51
2022/06/10 00:16:07;;;;;;;5.90;4.57;;;11.90;99.90;;;;;;5100237;28;20308;-50
2022/06/10 00:18:36;;;;;;;6.77;4.50;;;11.80;99.90;;;;;;5093832;28;20192;-50
2022/06/10 00:21:09;;;;;;;6.23;4.47;;;11.70;99.90;;;;;;5109953;28;20203;-51
2022/06/10 00:23:37;;;;;;;5.83;4.37;;;11.60;99.90;;;;;;5098139;28;20664;-51
2022/06/10 00:26:08;;;;;;;7.17;4.60;;;11.60;99.90;;;;;;5109827;28;20223;-51
2022/06/10 00:28:36;;;;;;;5.77;4.50;;;11.60;99.90;;;;;;5110073;28;20208;-50
2022/06/10 00:31:04;;;;;;;6.10;5.50;;;11.50;99.90;;;;;;5110727;28;20262;-51
2022/06/10 00:33:34;;;;;;;6.23;4.60;;;11.50;99.90;;;;;;5110290;28;20212;-51
2022/06/10 00:36:03;;;;;;;5.93;5.43;;;11.50;99.90;;;;;;5105093;28;20263;-51
2022/06/10 00:38:31;;;;;;;6.70;5.20;;;11.50;99.90;;;;;;5104458;28;20207;-51
2022/06/10 00:40:59;;;;;;;5.40;4.90;;;11.50;99.90;;;;;;5109638;28;20276;-50
2022/06/10 00:43:33;;;;;;;6.07;5.10;;;11.50;99.90;;;;;;5110053;28;20204;-51
2022/06/10 00:46:14;;;;;;;6.50;5.10;;;11.50;99.90;;;;;;5110209;28;20228;-51
2022/06/10 00:48:49;;;;;;;5.93;5.43;;;11.40;99.90;;;;;;5108267;28;20662;-50
2022/06/10 00:51:22;;;;;;;7.90;5.27;;;11.40;99.90;;;;;;5109594;28;20227;-51
2022/06/10 00:53:57;;;;;;;6.70;5.47;;;11.40;99.90;;;;;;5108894;28;20203;-51
2022/06/10 00:56:27;;;;;;;6.90;5.57;;;11.40;99.90;;;;;;5109790;28;20226;-51
2022/06/10 00:59:01;;;;;;;5.93;5.20;;;11.50;99.90;;;;;;5109557;28;20628;-51
2022/06/10 01:01:32;;;;;;;7.50;5.57;;;11.50;99.90;;;;;;5109385;28;20204;-51
2022/06/10 01:04:01;;;;;;;5.50;5.10;;;11.50;99.90;;;;;;5109216;28;20207;-50
2022/06/10 01:06:29;;;;;;;5.50;5.00;;;11.50;99.90;;;;;;5109601;28;20251;-51
2022/06/10 01:09:01;;;;;;;6.03;4.90;;;11.40;99.90;;;;;;5110005;28;20260;-51
2022/06/10 01:11:53;;;;;;;10.87;4.23;;;11.40;99.90;;;;;;5113091;28;20652;-50
2022/06/10 01:14:33;;;;;;;5.63;4.30;;;11.40;99.90;;;;;;5091373;28;20260;-51
2022/06/10 01:17:12;;;;;;;4.90;4.50;;;11.30;99.90;;;;;;5112684;28;20679;-51
2022/06/10 01:20:09;;;;;;;5.17;4.67;;;11.30;99.90;;;;;;5112420;28;20671;-51
2022/06/10 01:23:13;;;;;;;4.83;4.43;;;11.30;99.90;;;;;;5088358;28;20200;-51
2022/06/10 01:26:10;;;;;;;5.53;5.00;;;11.20;99.90;;;;;;5091858;28;20270;-51
2022/06/10 01:29:01;;;;;;;5.40;4.90;;;11.20;99.90;;;;;;5091887;28;20251;-51
2022/06/10 01:31:36;;;;;;;5.87;4.83;;;11.20;99.90;;;;;;5078726;28;20301;-51
2022/06/10 01:34:20;;;;;;;5.03;4.53;;;11.10;99.90;;;;;;5092086;28;20268;-51
2022/06/10 01:36:55;;;;;;;8.30;5.13;;;11.10;99.90;;;;;;5091736;28;20236;-51
2022/06/10 01:39:32;;;;;;;6.47;4.50;;;11.10;99.90;;;;;;5077693;28;20266;-51
2022/06/10 01:42:08;;;;;;;7.27;4.40;;;11.10;99.90;;;;;;5092372;28;20223;-51
2022/06/10 01:44:42;;;;;;;5.33;4.63;;;11.00;99.90;;;;;;5091308;28;20231;-50
2022/06/10 01:47:18;;;;;;;5.57;4.83;;;11.00;99.90;;;;;;5092048;28;20204;-51
2022/06/10 01:49:53;;;;;;;7.30;5.67;;;11.00;99.90;;;;;;5091867;28;20208;-51
2022/06/10 01:52:25;;;;;;;8.27;5.23;;;10.90;99.90;;;;;;5091642;28;20581;-51
2022/06/10 01:55:05;;;;;;;7.23;4.90;;;10.90;99.90;;;;;;5088538;28;20280;-51
2022/06/10 01:57:36;;;;;;;7.10;4.97;;;10.90;99.90;;;;;;5082710;28;20230;-51
2022/06/10 02:00:10;;;;;;;7.90;5.70;;;11.00;99.90;;;;;;5090890;28;20236;-51
2022/06/10 02:02:44;;;;;;;5.77;5.23;;;10.90;99.90;;;;;;5091524;28;20228;-50
2022/06/10 02:05:17;;;;;;;7.77;5.83;;;10.80;99.90;;;;;;5091349;28;20255;-51
2022/06/10 02:07:49;;;;;;;6.60;5.73;;;10.70;99.90;;;;;;5090721;28;20243;-50
2022/06/10 02:10:24;;;;;;;7.30;5.87;;;10.70;99.90;;;;;;5091654;28;20236;-51
2022/06/10 02:12:57;;;;;;;5.90;5.27;;;10.70;99.90;;;;;;5091263;28;20255;-52
2022/06/10 02:15:31;;;;;;;6.53;5.47;;;10.70;99.90;;;;;;5091218;28;20260;-50
2022/06/10 02:18:05;;;;;;;9.53;6.17;;;10.70;99.90;;;;;;5090681;28;20236;-51
2022/06/10 02:20:36;;;;;;;6.03;5.40;;;10.70;99.90;;;;;;5090984;28;20219;-51
2022/06/10 02:23:08;;;;;;;6.00;5.37;;;10.60;99.90;;;;;;5090578;28;20208;-51
2022/06/10 02:25:41;;;;;;;7.37;5.47;;;10.70;99.90;;;;;;5091222;28;20220;-50
2022/06/10 02:28:13;;;;;;;7.60;5.50;;;10.60;99.90;;;;;;5090747;28;20208;-51
2022/06/10 02:30:45;;;;;;;6.90;5.70;;;10.60;99.90;;;;;;5076592;28;20213;-51
2022/06/10 02:33:14;;;;;;;9.17;6.20;;;10.60;99.90;;;;;;5091079;28;20283;-50
2022/06/10 02:35:49;;;;;;;6.77;5.47;;;10.50;99.90;;;;;;5090910;28;20284;-51
2022/06/10 02:38:32;;;;;;;7.60;5.60;;;10.50;99.90;;;;;;5090720;28;20204;-51
2022/06/10 02:41:08;;;;;;;6.07;5.00;;;10.60;99.90;;;;;;5090810;28;20289;-50
2022/06/10 02:43:41;;;;;;;5.77;5.27;;;10.60;99.90;;;;;;5090910;28;20208;-51
2022/06/10 02:46:17;;;;;;;6.70;5.50;;;10.60;99.90;;;;;;5090107;28;20316;-51
2022/06/10 02:48:53;;;;;;;5.30;4.80;;;10.60;99.90;;;;;;5090719;28;20230;-50
2022/06/10 02:51:21;;;;;;;8.80;5.50;;;10.60;99.90;;;;;;5090306;28;20697;-51
2022/06/10 02:53:49;;;;;;;9.43;5.87;;;10.60;99.90;;;;;;5090608;28;20235;-51
2022/06/10 02:56:20;;;;;;;9.90;6.30;;;10.60;99.90;;;;;;5090488;28;20281;-51
2022/06/10 03:01:46;;;;;;;7.40;6.67;;;10.50;99.90;;;;;;5089614;28;20208;-51
2022/06/10 03:04:24;;;;;;;7.73;6.93;;;10.40;99.90;;;;;;5090557;28;20243;-50
2022/06/10 03:07:18;;;;;;;8.47;6.53;;;10.40;99.90;;;;;;5090418;28;20254;-51
2022/06/10 03:09:59;;;;;;;8.60;6.73;;;10.40;99.90;;;;;;5099837;28;20241;-51
2022/06/10 03:12:36;;;;;;;7.00;6.30;;;10.30;99.90;;;;;;5104615;28;20259;-51
2022/06/10 03:15:39;;;;;;;6.80;5.93;;;10.30;99.90;;;;;;5110988;28;20266;-50
2022/06/10 03:18:14;;;;;;;8.87;5.83;;;10.30;99.90;;;;;;5109796;28;20235;-50
2022/06/10 03:20:53;;;;;;;10.53;7.00;;;10.40;99.90;;;;;;5110898;28;20254;-51
2022/06/10 03:23:25;;;;;;;8.20;6.37;;;10.40;99.90;;;;;;5095906;28;20211;-50
2022/06/10 03:25:57;;;;;;;6.33;5.63;;;10.40;99.90;;;;;;5110570;28;20239;-51
2022/06/10 03:28:30;;;;;;;7.77;5.63;;;10.40;99.90;;;;;;5110380;28;20269;-50
2022/06/10 03:31:04;;;;;;;7.47;5.77;;;10.40;99.90;;;;;;5076286;28;20243;-51
2022/06/10 03:33:37;;;;;;;8.47;5.60;;;10.40;99.90;;;;;;5089476;28;20319;-51
2022/06/10 03:36:10;;;;;;;8.87;6.87;;;10.50;99.90;;;;;;5089582;28;20236;-50
2022/06/10 03:38:41;;;;;;;7.50;6.67;;;10.50;99.90;;;;;;5089610;28;20230;-51
2022/06/10 03:41:18;;;;;;;7.43;6.73;;;10.60;99.90;;;;;;5089439;28;20230;-51
2022/06/10 03:43:47;;;;;;;7.03;6.03;;;10.60;99.90;;;;;;5089858;28;20231;-51
2022/06/10 03:46:16;;;;;;;7.60;6.90;;;10.60;99.90;;;;;;5089869;28;20277;-50
2022/06/10 03:48:46;;;;;;;8.40;6.30;;;10.60;99.90;;;;;;5089054;28;20204;-51
2022/06/10 03:51:17;;;;;;;6.93;5.80;;;10.60;99.90;;;;;;5089769;28;20200;-51
2022/06/10 03:53:46;;;;;;;7.37;6.10;;;10.70;99.90;;;;;;5089339;28;20685;-51
2022/06/10 03:56:20;;;;;;;7.40;5.90;;;10.80;99.90;;;;;;5090563;28;20231;-50
2022/06/10 03:58:48;;;;;;;7.47;6.67;;;10.80;99.90;;;;;;5109612;28;20239;-51
2022/06/10 04:01:16;;;;;;;8.07;6.63;;;10.90;99.90;;;;;;5110450;28;20268;-51
2022/06/10 04:03:45;;;;;;;6.60;5.90;;;10.90;99.90;;;;;;5109412;28;20199;-51
2022/06/10 04:06:13;;;;;;;9.67;5.90;;;10.90;99.90;;;;;;5110030;28;20223;-51
2022/06/10 04:09:02;;;;;;;8.63;6.40;;;11.00;99.90;;;;;;5109301;28;20752;-50
2022/06/10 04:11:33;;;;;;;8.67;5.40;;;11.10;99.90;;;;;;5109470;28;20204;-51
2022/06/10 04:14:01;;;;;;;6.23;4.50;;;11.90;99.90;;;;;;5087875;28;20287;-51
2022/06/10 04:16:29;;;;;;;8.30;5.10;;;12.60;99.90;;;;;;5109189;28;20289;-51
2022/06/10 04:18:57;;;;;;;5.50;4.60;;;13.20;99.90;;;;;;5110143;28;20581;-51
2022/06/10 04:21:25;;;;;;;6.87;4.43;;;13.60;99.90;;;;;;5092616;28;20247;-51
2022/06/10 04:23:53;;;;;;;5.93;5.23;;;13.90;99.90;;;;;;5109554;28;20656;-51
2022/06/10 04:26:23;;;;;;;5.27;4.60;;;14.50;99.90;;;;;;5109514;28;20223;-51
2022/06/10 04:28:51;;;;;;;4.43;4.03;;;14.90;99.90;;;;;;5106651;28;20246;-51
2022/06/10 04:31:19;;;;;;;6.15;4.07;;;15.20;99.90;;;;;;5076288;28;20247;-51
2022/06/10 04:33:48;;;;;;;7.47;4.15;;;15.60;99.90;;;;;;5088208;28;20750;-51
2022/06/10 04:36:18;;;;;;;5.10;4.00;;;15.90;99.90;;;;;;5088782;28;20281;-52
2022/06/10 04:38:47;;;;;;;7.00;3.70;;;16.10;99.90;;;;;;5088858;28;20208;-51
2022/06/10 04:41:16;;;;;;;8.02;3.97;;;16.20;99.90;;;;;;5089373;28;20360;-52
2022/06/10 04:43:45;;;;;;;4.60;3.80;;;16.60;99.90;;;;;;5091098;28;20239;-52
2022/06/10 04:46:22;;;;;;;5.03;3.60;;;16.90;99.90;;;;;;5092945;28;20289;-52
2022/06/10 04:48:51;;;;;;;4.30;3.25;;;17.00;99.90;;;;;;5092732;28;20223;-52
2022/06/10 04:51:19;;;;;;;4.72;3.50;;;17.10;99.90;;;;;;5093082;28;20273;-51
2022/06/10 04:53:47;;;;;;;4.22;3.42;;;17.30;99.90;;;;;;5092689;28;20228;-51
2022/06/10 04:56:15;;;;;;;3.60;3.30;;;17.70;99.90;;;;;;5092623;28;20627;-52
2022/06/10 04:58:45;;;;;;;4.75;3.55;;;17.90;99.90;;;;;;5087638;28;20285;-51
2022/06/10 05:01:13;;;;;;;3.83;3.50;;;18.30;99.90;;;;;;5089606;28;20212;-52
2022/06/10 05:03:42;;;;;;;4.10;3.22;;;18.50;99.90;;;;;;5086700;28;20673;-51
2022/06/10 05:06:11;;;;;;;3.45;3.15;;;18.70;99.90;;;;;;5092264;28;20618;-52
2022/06/10 05:08:39;;;;;;;3.88;3.20;;;18.90;99.90;;;;;;5100049;28;20243;-51
2022/06/10 05:11:08;;;;;;;5.00;3.22;;;19.20;99.90;;;;;;5112942;28;20239;-52
2022/06/10 05:13:36;;;;;;;4.72;3.90;;;19.40;99.90;;;;;;5107530;28;20674;-51
2022/06/10 05:16:06;;;;;;;3.88;3.38;;;19.50;99.90;;;;;;5112006;28;20223;-51
2022/06/10 05:18:35;;;;;;;4.75;3.80;;;19.80;99.90;;;;;;5112463;28;20699;-51
2022/06/10 05:21:03;;;;;;;4.95;3.70;;;20.20;99.90;;;;;;5112710;28;20224;-52
2022/06/10 05:23:31;;;;;;;5.45;3.90;;;20.40;99.90;;;;;;5092212;28;20257;-52
2022/06/10 05:25:59;;;;;;;5.03;3.90;;;20.50;99.90;;;;;;5112231;28;20379;-52
2022/06/10 05:28:33;;;;;;;6.53;3.80;;;20.70;99.90;;;;;;5112071;28;20211;-51
2022/06/10 05:31:01;;;;;;;6.40;4.32;;;20.90;99.90;;;;;;5077924;28;20204;-52
2022/06/10 05:34:44;;;;;;;3.78;3.47;;;21.10;99.90;;;;;;5091837;28;20236;-52
2022/06/10 05:36:20;;;;;;;5.32;3.65;;;21.30;99.90;;;;;;5090985;28;20228;-52
2022/06/10 05:38:49;;;;;;;4.30;3.40;;;21.50;99.90;;;;;;5091726;28;20208;-52
2022/06/10 05:44:06;;;;;;;4.60;3.42;;;21.80;99.90;;;;;;5065758;28;20329;-51
2022/06/10 05:46:35;;;;;;;3.58;3.13;;;22.00;99.90;;;;;;5091474;28;20296;-52
2022/06/10 05:49:04;;;;;;;5.22;3.30;;;22.10;99.90;;;;;;5091707;28;20236;-52
2022/06/10 05:51:32;;;;;;;4.22;3.33;;;22.30;99.90;;;;;;5077516;28;20204;-52
2022/06/10 05:54:00;;;;;;;5.20;3.65;;;22.20;99.90;;;;;;5090832;28;20224;-52
2022/06/10 05:56:29;;;;;;;4.53;3.15;;;22.30;99.90;;;;;;5090360;28;20789;-52
2022/06/10 05:58:57;;;;;;;3.90;3.10;;;22.60;99.90;;;;;;5090734;28;20216;-52
2022/06/10 06:01:25;;;;;;;4.50;3.33;;;23.10;99.90;;;;;;5091231;28;20553;-52
2022/06/10 06:03:53;;;;;;;4.85;2.95;;;23.00;99.90;;;;;;5091390;28;20236;-51
2022/06/10 06:06:23;;;;;;;4.95;3.60;;;22.90;99.90;;;;;;5091510;28;20228;-52
2022/06/10 06:08:51;;;;;;;5.10;4.07;;;23.00;99.90;;;;;;5091103;28;20274;-52
2022/06/10 06:11:19;;;;;;;5.28;4.47;;;23.30;99.90;;;;;;5091087;28;20244;-52
2022/06/10 06:13:47;;;;;;;4.72;3.90;;;23.20;99.90;;;;;;5091449;28;20256;-52
2022/06/10 06:16:18;;;;;;;4.60;3.80;;;23.50;99.90;;;;;;5091547;28;20285;-52
2022/06/10 06:18:48;;;;;;;5.72;3.85;;;23.90;99.90;;;;;;5091206;28;20200;-52
2022/06/10 06:21:16;;;;;;;5.43;3.92;;;23.80;99.90;;;;;;5091280;28;20204;-52
2022/06/10 06:23:50;;;;;;;4.88;3.63;;;23.80;99.90;;;;;;5090781;28;20601;-52
2022/06/10 06:26:18;;;;;;;5.72;3.88;;;23.80;99.90;;;;;;5090988;28;20289;-52
2022/06/10 06:28:46;;;;;;;4.97;4.20;;;23.80;99.90;;;;;;5090463;28;20230;-52
2022/06/10 06:31:15;;;;;;;6.25;4.25;;;24.10;99.90;;;;;;5077827;28;20211;-52
2022/06/10 06:33:43;;;;;;;7.22;4.38;;;24.10;99.90;;;;;;5090894;28;20224;-52
2022/06/10 06:36:18;;;;;;;6.15;5.25;;;24.20;99.90;;;;;;5090658;28;20250;-52
2022/06/10 06:38:46;;;;;;;6.80;5.47;;;24.40;99.90;;;;;;5090228;28;20235;-52
2022/06/10 06:41:16;;;;;;;6.35;5.38;;;24.40;99.90;;;;;;5090782;28;20253;-52
2022/06/10 06:43:44;;;;;;;8.77;6.68;;;24.60;99.90;;;;;;5090534;28;20251;-52
2022/06/10 06:46:14;;;;;;;6.82;5.65;;;24.80;99.90;;;;;;5090166;28;20273;-52
2022/06/10 06:48:43;;;;;;;8.82;5.40;;;24.90;99.90;;;;;;5099103;28;20210;-52
2022/06/10 06:51:12;;;;;;;6.93;6.10;;;24.90;99.90;;;;;;5111321;28;20253;-52
2022/06/10 06:53:40;;;;;;;6.78;5.88;;;24.90;99.90;;;;;;5110555;28;20231;-52
2022/06/10 06:56:08;;;;;;;8.02;6.10;;;25.20;99.90;;;;;;5105436;28;20215;-52
2022/06/10 06:58:37;;;;;;;7.07;6.18;;;25.50;99.90;;;;;;5111087;28;20208;-52
2022/06/10 07:01:05;;;;;;;7.43;6.00;;;25.40;99.90;;;;;;5110170;28;20557;-52
2022/06/10 07:03:34;;;;;;;7.75;5.20;;;25.20;99.90;;;;;;5110655;28;20668;-52
2022/06/10 07:06:02;;;;;;;7.05;6.32;;;25.40;99.90;;;;;;5109882;28;20281;-52
2022/06/10 07:08:32;;;;;;;7.07;6.38;;;25.70;99.90;;;;;;5109907;28;20199;-52
2022/06/10 07:11:01;;;;;;;8.48;6.53;;;25.70;99.90;;;;;;5110513;28;20211;-52
2022/06/10 07:13:29;;;;;;;10.07;6.25;;;25.40;99.90;;;;;;5102114;28;20260;-52
2022/06/10 07:16:01;;;;;;;6.60;6.00;;;25.50;99.90;;;;;;5110125;28;20266;-52
2022/06/10 07:18:30;;;;;;;6.72;6.03;;;25.60;99.90;;;;;;5110129;28;20208;-52
2022/06/10 07:20:58;;;;;;;7.43;6.28;;;25.50;99.90;;;;;;5110185;28;20200;-52
2022/06/10 07:23:27;;;;;;;7.72;6.85;;;25.60;99.90;;;;;;5095660;28;20319;-52
2022/06/10 07:25:56;;;;;;;7.32;6.30;;;25.70;99.90;;;;;;5110394;28;20227;-52
2022/06/10 07:28:24;;;;;;;8.52;5.18;;;25.70;99.90;;;;;;5109759;28;20225;-52
2022/06/10 07:30:52;;;;;;;6.70;5.35;;;25.90;99.90;;;;;;5076239;28;20727;-52
2022/06/10 07:33:22;;;;;;;7.20;5.88;;;25.90;99.90;;;;;;5089039;28;20208;-53
2022/06/10 07:35:50;;;;;;;7.10;6.05;;;25.90;99.90;;;;;;5089218;28;20255;-52
2022/06/10 07:38:18;;;;;;;7.25;5.72;;;25.90;99.90;;;;;;5086299;28;20208;-53
2022/06/10 07:43:40;;;;;;;7.65;5.50;;;25.90;99.90;;;;;;5088741;28;20208;-52
2022/06/10 07:46:09;;;;;;;6.88;5.43;;;26.00;99.90;;;;;;5109813;28;20227;-52
2022/06/10 07:48:39;;;;;;;6.72;5.13;;;26.10;99.90;;;;;;5097903;28;20263;-52
2022/06/10 07:51:07;;;;;;;6.45;4.70;;;26.20;99.90;;;;;;5110115;28;20366;-52
2022/06/10 07:53:35;;;;;;;8.48;4.93;;;26.50;99.90;;;;;;5109424;28;20229;-52
2022/06/10 07:56:04;;;;;;;6.45;4.30;;;26.30;99.90;;;;;;5109517;28;20231;-53
2022/06/10 07:58:32;;;;;;;7.28;4.18;;;26.30;99.90;;;;;;5109602;28;20907;-52
2022/06/10 08:01:00;;;;;;;6.72;4.40;;;26.30;99.90;;;;;;5109558;28;20208;-51
2022/06/10 08:03:29;;;;;;;6.18;3.13;;;26.30;99.90;;;;;;5109911;28;20234;-52
2022/06/10 08:05:59;;;;;;;7.95;3.85;;;26.20;99.90;;;;;;5109805;28;20227;-52
2022/06/10 08:08:27;;;;;;;6.35;3.63;;;26.00;99.90;;;;;;5096148;28;20273;-53
2022/06/10 08:10:57;;;;;;;5.97;3.25;;;25.40;99.90;;;;;;5095256;28;20199;-52
2022/06/10 08:13:25;;;;;;;7.40;3.63;;;25.20;99.90;;;;;;5105748;28;20207;-52
2022/06/10 08:15:57;;;;;;;8.52;3.53;;;25.00;99.90;;;;;;5098220;28;20232;-52
2022/06/10 08:18:26;;;;;;;5.90;3.03;;;24.80;99.90;;;;;;5090010;28;20204;-52
2022/06/10 08:23:42;;;;;;;6.93;5.18;;;24.80;99.90;;;;;;5092607;28;20204;-52
2022/06/10 08:26:12;;;;;;;5.65;4.55;;;24.60;99.90;;;;;;5101129;28;20247;-52
2022/06/10 08:28:43;;;;;;;5.95;3.10;;;24.40;99.90;;;;;;5092603;28;20196;-52
2022/06/10 08:31:12;;;;;;;3.78;2.85;;;24.10;99.90;;;;;;5079924;28;20212;-51
2022/06/10 08:33:42;;;;;;;5.20;3.03;;;24.10;99.90;;;;;;5092613;28;20204;-52
2022/06/10 08:36:13;;;;;;;6.00;2.70;;;24.20;99.90;;;;;;5092224;28;20252;-52
2022/06/10 08:38:43;;;;;;;21.10;4.07;;;24.20;99.90;;;;;;5093060;28;20743;-52
2022/06/10 08:41:24;;;;;;;3.58;2.13;;;24.00;99.90;;;;;;5092985;28;20247;-52
2022/06/10 08:44:04;;;;;;;7.85;3.45;;;24.00;99.90;;;;;;5093036;28;20257;-52
2022/06/10 08:47:00;;;;;;;4.55;2.38;;;24.20;99.90;;;;;;5079096;28;20730;-52
2022/06/10 08:49:43;;;;;;;6.60;2.50;;;24.30;99.90;;;;;;5089400;28;20287;-52
2022/06/10 08:52:18;;;;;;;4.00;2.88;;;24.30;99.90;;;;;;5092735;28;20257;-52
2022/06/10 08:54:57;;;;;;;4.90;2.78;;;24.30;99.90;;;;;;5092625;28;20569;-52
2022/06/10 08:57:32;;;;;;;4.07;2.92;;;24.20;99.90;;;;;;5092456;28;20370;-52
2022/06/10 09:00:02;;;;;;;6.10;2.85;;;24.20;99.90;;;;;;5092709;28;20253;-51
2022/06/10 09:02:32;;;;;;;6.97;3.30;;;24.20;99.90;;;;;;5091955;28;20673;-52
2022/06/10 09:05:06;;;;;;;4.55;2.30;;;24.20;99.90;;;;;;5092351;28;20716;-51
2022/06/10 09:07:42;;;;;;;5.35;2.70;;;24.20;99.90;;;;;;5091853;28;20661;-52
2022/06/10 09:10:20;;;;;;;4.78;2.80;;;24.20;99.90;;;;;;5091995;28;20704;-52
2022/06/10 09:13:07;;;;;;;4.55;2.85;;;24.30;99.90;;;;;;5092007;28;20222;-52
2022/06/10 09:15:43;;;;;;;6.00;2.80;;;24.50;99.90;;;;;;5079872;28;20246;-52
2022/06/10 09:18:20;;;;;;;5.78;2.90;;;24.10;99.90;;;;;;5092000;28;20207;-52
2022/06/10 09:20:55;;;;;;;6.80;2.97;;;24.20;99.90;;;;;;5092326;28;20203;-52
2022/06/10 09:23:35;;;;;;;6.45;2.85;;;24.40;99.90;;;;;;5091349;28;20208;-52
2022/06/10 09:26:12;;;;;;;7.18;2.78;;;24.40;99.90;;;;;;5091946;28;20676;-51
2022/06/10 09:28:47;;;;;;;4.28;2.80;;;24.60;99.90;;;;;;5091034;28;20200;-52
2022/06/10 09:31:29;;;;;;;7.20;3.30;;;24.70;99.90;;;;;;5078012;28;20204;-52
2022/06/10 09:34:05;;;;;;;5.68;2.80;;;24.60;99.90;;;;;;5091618;28;20203;-52
2022/06/10 09:36:40;;;;;;;8.43;3.20;;;24.60;99.90;;;;;;5090389;28;20232;-51
2022/06/10 09:40:35;;;;;;;6.38;2.70;;;24.70;99.90;;;;;;5091695;28;20584;-50
2022/06/10 09:42:15;;;;;;;8.57;2.80;;;24.70;99.90;;;;;;5091402;28;20212;-51
2022/06/10 09:44:51;;;;;;;5.00;2.60;;;24.80;99.90;;;;;;5071646;28;20201;-51
2022/06/10 09:47:29;;;;;;;9.60;2.83;;;24.70;99.90;;;;;;5089019;28;20252;-50
2022/06/10 09:50:13;;;;;;;5.88;2.88;;;24.50;99.90;;;;;;5084363;28;20235;-51
2022/06/10 09:52:52;;;;;;;4.40;2.65;;;24.60;99.90;;;;;;5090355;28;20721;-51
2022/06/10 09:55:33;;;;;;;4.97;2.70;;;24.60;99.90;;;;;;5091144;28;20306;-51
2022/06/10 09:58:20;;;;;;;5.88;2.60;;;24.10;99.90;;;;;;5088295;28;20239;-51
2022/06/10 10:00:56;;;;;;;5.63;2.88;;;24.30;99.90;;;;;;5091896;28;20238;-51
2022/06/10 10:03:44;;;;;;;7.13;2.80;;;24.20;99.90;;;;;;5090916;28;20203;-51
2022/06/10 10:06:31;;;;;;;6.72;2.80;;;24.30;99.90;;;;;;5091367;28;20297;-51
2022/06/10 10:09:06;;;;;;;7.25;2.90;;;24.50;99.90;;;;;;5090870;28;20676;-51
2022/06/10 10:11:42;;;;;;;4.80;3.05;;;24.50;99.90;;;;;;5090857;28;20207;-51
2022/06/10 10:14:27;;;;;;;5.90;2.63;;;24.40;99.90;;;;;;5091477;28;20246;-50
2022/06/10 10:17:07;;;;;;;6.30;2.67;;;24.40;99.90;;;;;;5090824;28;20220;-50
2022/06/10 10:19:53;;;;;;;6.45;2.70;;;24.60;99.90;;;;;;5091280;28;20689;-51
2022/06/10 10:22:55;;;;;;;6.35;2.85;;;24.60;99.90;;;;;;5089379;28;20300;-51
2022/06/10 10:25:25;;;;;;;5.65;2.70;;;24.80;99.90;;;;;;5102880;28;20219;-51
2022/06/10 10:27:55;;;;;;;5.90;2.72;;;24.90;99.90;;;;;;5110860;28;20246;-51
2022/06/10 10:30:32;;;;;;;5.55;2.95;;;24.90;99.90;;;;;;5082276;28;20247;-51
2022/06/10 10:33:04;;;;;;;7.30;2.88;;;24.50;99.90;;;;;;5090299;28;20211;-51
2022/06/10 10:35:37;;;;;;;7.13;3.00;;;24.40;99.90;;;;;;5090876;28;20235;-51
2022/06/10 10:38:09;;;;;;;4.13;2.30;;;24.60;99.90;;;;;;5085644;28;20253;-52
2022/06/10 10:40:41;;;;;;;4.38;2.55;;;24.70;99.90;;;;;;5090211;28;20243;-52
2022/06/10 10:43:15;;;;;;;8.43;2.47;;;24.60;99.90;;;;;;5090216;28;20283;-51
2022/06/10 10:45:57;;;;;;;6.90;2.88;;;24.70;99.90;;;;;;5090957;28;20306;-51
2022/06/10 10:48:30;;;;;;;4.05;2.50;;;24.90;99.90;;;;;;5089949;28;20269;-51
2022/06/10 10:51:04;;;;;;;5.00;2.70;;;24.90;99.90;;;;;;5090672;28;20204;-51
2022/06/10 10:53:37;;;;;;;7.72;2.70;;;24.90;99.90;;;;;;5090195;28;20243;-51
2022/06/10 10:56:07;;;;;;;7.72;4.18;;;24.80;99.90;;;;;;5090167;28;20745;-51
2022/06/10 10:58:38;;;;;;;6.55;2.70;;;24.50;99.90;;;;;;5090624;28;20196;-51
2022/06/10 11:01:09;;;;;;;7.75;3.95;;;24.40;99.90;;;;;;5090199;28;20204;-50
2022/06/10 11:03:46;;;;;;;8.77;4.10;;;24.80;99.90;;;;;;5089957;28;20204;-51
2022/06/10 11:06:26;;;;;;;5.68;2.80;;;24.80;99.90;;;;;;5089536;28;20250;-52
2022/06/10 11:09:00;;;;;;;7.53;2.60;;;25.10;99.90;;;;;;5089786;28;20242;-51
2022/06/10 11:11:33;;;;;;;6.70;2.65;;;25.00;99.90;;;;;;5089507;28;20212;-52
2022/06/10 11:14:20;;;;;;;8.63;2.50;;;25.10;99.90;;;;;;5080206;28;20204;-51
2022/06/10 11:17:18;;;;;;;5.78;2.45;;;25.30;99.90;;;;;;5089343;28;20216;-51
2022/06/10 11:19:52;;;;;;;5.07;2.50;;;25.20;99.90;;;;;;5081679;28;20236;-52
2022/06/10 11:22:29;;;;;;;4.90;2.38;;;25.30;99.90;;;;;;5080452;28;22100;-52
2022/06/10 11:25:22;;;;;;;8.65;2.75;;;25.10;99.90;;;;;;5084306;28;20231;-51
2022/06/10 11:28:04;;;;;;;5.55;2.47;;;25.00;99.90;;;;;;5081452;28;20192;-52
2022/06/10 11:30:37;;;;;;;7.95;2.60;;;24.80;99.90;;;;;;5075057;28;20589;-52
2022/06/10 11:33:17;;;;;;;7.53;2.33;;;24.70;99.90;;;;;;5089380;28;20204;-52
2022/06/10 11:36:01;;;;;;;5.43;2.20;;;24.70;99.90;;;;;;5089123;28;20278;-51
2022/06/10 11:38:32;;;;;;;7.70;2.53;;;24.60;99.90;;;;;;5089062;28;20200;-52
2022/06/10 11:41:14;;;;;;;8.00;2.50;;;25.00;99.90;;;;;;5088885;28;20204;-51
2022/06/10 11:43:47;;;;;;;5.97;2.55;;;25.30;99.90;;;;;;5089863;28;20231;-52
2022/06/10 11:46:23;;;;;;;4.60;2.45;;;25.60;99.90;;;;;;5089223;28;20303;-52
2022/06/10 11:48:59;;;;;;;7.07;2.50;;;25.60;99.90;;;;;;5089368;28;20199;-52
2022/06/10 11:51:33;;;;;;;5.10;2.40;;;25.60;99.90;;;;;;5084645;28;20859;-52
2022/06/10 11:54:12;;;;;;;5.93;2.50;;;25.80;99.90;;;;;;5073456;28;20757;-53
2022/06/10 11:59:57;;;;;;;6.68;2.70;;;25.90;99.90;;;;;;5052772;28;20481;-52
2022/06/10 12:02:31;;;;;;;6.15;1.80;;;25.80;99.90;;;;;;5089385;28;20466;-53
2022/06/10 12:05:28;;;;;;;4.50;2.35;;;25.70;99.90;;;;;;5089332;28;20230;-52
2022/06/10 12:08:04;;;;;;;7.60;2.40;;;25.60;99.90;;;;;;5089290;28;20287;-52
2022/06/10 12:10:43;;;;;;;6.72;2.53;;;25.50;99.90;;;;;;5089543;28;20676;-52
2022/06/10 12:13:13;;;;;;;4.75;2.25;;;25.60;99.90;;;;;;5089730;28;20200;-52
2022/06/10 12:15:48;;;;;;;6.13;2.30;;;25.90;99.90;;;;;;5089207;28;20228;-52
2022/06/10 12:18:18;;;;;;;5.30;2.30;;;26.10;99.90;;;;;;5088902;28;20683;-52
2022/06/10 12:20:51;;;;;;;8.88;2.55;;;26.10;99.90;;;;;;5089052;28;20204;-52
2022/06/10 12:23:24;;;;;;;5.13;2.00;;;26.20;99.90;;;;;;5088920;28;20261;-53
2022/06/10 12:26:00;;;;;;;7.82;2.53;;;26.00;99.90;;;;;;5089119;28;20293;-52
2022/06/10 12:28:43;;;;;;;5.47;2.40;;;26.10;99.90;;;;;;5090901;28;20917;-52
2022/06/10 12:31:44;;;;;;;4.88;2.30;;;25.90;99.90;;;;;;5075460;28;20619;-52
2022/06/10 12:34:22;;;;;;;7.50;2.28;;;25.90;99.90;;;;;;5086731;28;20212;-52
2022/06/10 12:36:57;;;;;;;5.88;2.10;;;25.90;99.90;;;;;;5089109;28;20231;-52
2022/06/10 12:39:29;;;;;;;6.63;2.65;;;25.90;99.90;;;;;;5080563;28;20211;-51
2022/06/10 12:42:04;;;;;;;5.97;2.30;;;25.70;99.90;;;;;;5088999;28;20200;-51
2022/06/10 12:44:37;;;;;;;4.55;1.90;;;25.70;99.90;;;;;;5088171;28;20242;-52
2022/06/10 12:47:07;;;;;;;5.10;2.00;;;25.70;99.90;;;;;;5083726;28;20207;-52
2022/06/10 12:49:40;;;;;;;5.85;2.30;;;25.60;99.90;;;;;;5086481;28;20253;-52
2022/06/10 12:52:51;;;;;;;7.07;1.98;;;25.60;99.90;;;;;;5088172;28;20254;-51
2022/06/10 12:55:25;;;;;;;6.65;2.20;;;25.30;99.90;;;;;;5070009;28;20285;-51
2022/06/10 12:57:55;;;;;;;4.97;2.00;;;25.00;99.90;;;;;;5088919;28;20228;-51
2022/06/10 13:00:36;;;;;;;4.25;2.20;;;25.00;99.90;;;;;;5088795;28;20266;-51
2022/06/10 13:03:34;;;;;;;7.35;2.40;;;25.20;99.90;;;;;;5088232;28;20703;-52
2022/06/10 13:06:28;;;;;;;7.78;2.28;;;25.50;99.90;;;;;;5088820;28;20242;-51
2022/06/10 13:09:02;;;;;;;5.13;2.03;;;25.80;99.90;;;;;;5092054;28;20237;-52
2022/06/10 13:11:40;;;;;;;5.55;1.98;;;25.90;99.90;;;;;;5088864;28;20205;-52
2022/06/10 13:14:25;;;;;;;6.55;2.17;;;26.00;99.90;;;;;;5092027;28;20261;-52
2022/06/10 13:17:17;;;;;;;5.95;2.15;;;25.90;99.90;;;;;;5090909;28;20293;-51
2022/06/10 13:20:18;;;;;;;7.03;2.22;;;25.80;99.90;;;;;;5091548;28;20717;-52
2022/06/10 13:23:02;;;;;;;7.53;2.22;;;25.70;99.90;;;;;;5091372;28;20696;-52
2022/06/10 13:25:31;;;;;;;4.63;1.90;;;25.70;99.90;;;;;;5090908;28;20293;-52
2022/06/10 13:27:59;;;;;;;6.03;2.05;;;25.60;99.90;;;;;;5091596;28;20192;-52
2022/06/10 13:30:30;;;;;;;7.38;2.33;;;25.70;99.90;;;;;;5077064;28;20231;-51
2022/06/10 13:33:05;;;;;;;7.22;1.90;;;25.70;99.90;;;;;;5091794;28;20205;-51
2022/06/10 13:35:36;;;;;;;5.43;2.22;;;25.70;99.90;;;;;;5091791;28;20232;-52